createdAt,value
2019-01-28T00:01:40.285Z,2.10
2019-01-28T00:04:17.025Z,2.12
2019-01-28T00:06:47.694Z,3.12
2019-01-28T00:09:18.347Z,2.47
2019-01-28T00:11:54.603Z,2.47
2019-01-28T00:14:25.577Z,2.02
2019-01-28T00:16:56.211Z,2.22
2019-01-28T00:19:27.857Z,2.60
2019-01-28T00:21:58.846Z,2.40
2019-01-28T00:24:29.187Z,2.60
2019-01-28T00:27:00.629Z,2.50
2019-01-28T00:29:30.889Z,2.83
2019-01-28T00:32:02.951Z,2.22
2019-01-28T00:34:33.001Z,2.40
2019-01-28T00:37:03.089Z,2.15
2019-01-28T00:39:34.265Z,2.35
2019-01-28T00:42:04.084Z,2.17
2019-01-28T00:44:35.117Z,2.50
2019-01-28T00:47:05.130Z,1.62
2019-01-28T00:49:34.913Z,1.85
2019-01-28T00:52:05.907Z,2.25
2019-01-28T00:54:36.873Z,1.65
2019-01-28T00:57:13.469Z,1.37
2019-01-28T00:59:49.317Z,1.65
2019-01-28T01:02:21.513Z,1.75
2019-01-28T01:04:55.911Z,1.98
2019-01-28T01:07:26.050Z,1.07
2019-01-28T01:09:56.239Z,1.35
2019-01-28T01:12:27.066Z,1.35
2019-01-28T01:14:57.025Z,1.27
2019-01-28T01:17:26.877Z,1.10
2019-01-28T01:19:56.727Z,1.12
2019-01-28T01:22:29.166Z,1.30
2019-01-28T01:24:59.139Z,1.00
2019-01-28T01:27:28.994Z,1.20
2019-01-28T01:29:58.980Z,1.20
2019-01-28T01:32:28.837Z,0.88
2019-01-28T01:35:00.839Z,1.35
2019-01-28T01:37:30.975Z,1.40
2019-01-28T01:40:00.853Z,1.17
2019-01-28T01:42:30.875Z,1.20
2019-01-28T01:45:00.985Z,1.40
2019-01-28T01:47:33.047Z,1.65
2019-01-28T01:50:04.046Z,1.37
2019-01-28T01:52:40.587Z,1.75
2019-01-28T01:55:14.845Z,1.70
2019-01-28T01:57:50.737Z,2.15
2019-01-28T02:00:20.975Z,1.70
2019-01-28T02:03:03.423Z,2.27
2019-01-28T02:05:33.498Z,2.45
2019-01-28T02:08:03.611Z,2.35
2019-01-28T02:10:35.619Z,2.25
2019-01-28T02:13:05.883Z,2.30
2019-01-28T02:15:36.057Z,2.08
2019-01-28T02:18:07.881Z,2.72
2019-01-28T02:20:37.879Z,2.50
2019-01-28T02:23:13.893Z,2.70
2019-01-28T02:25:51.914Z,2.50
2019-01-28T02:28:21.769Z,3.25
2019-01-28T02:30:52.329Z,2.67
2019-01-28T02:33:22.013Z,2.77
2019-01-28T02:35:53.973Z,3.20
2019-01-28T02:38:27.358Z,3.40
2019-01-28T02:40:57.378Z,3.40
2019-01-28T02:43:36.690Z,3.90
2019-01-28T02:46:06.982Z,3.45
2019-01-28T02:48:37.810Z,2.33
2019-01-28T02:51:07.882Z,3.05
2019-01-28T02:53:44.283Z,3.42
2019-01-28T02:56:14.110Z,3.12
2019-01-28T02:58:44.051Z,3.20
2019-01-28T03:01:13.926Z,3.55
2019-01-28T03:03:43.942Z,3.20
2019-01-28T03:06:13.794Z,3.80
2019-01-28T03:08:46.714Z,3.85
2019-01-28T03:11:16.723Z,3.72
2019-01-28T03:13:58.753Z,3.45
2019-01-28T03:16:28.856Z,3.10
2019-01-28T03:18:58.675Z,3.25
2019-01-28T03:21:28.707Z,3.55
2019-01-28T03:23:58.526Z,3.17
2019-01-28T03:26:29.518Z,3.00
2019-01-28T03:28:59.597Z,3.05
2019-01-28T03:31:31.306Z,3.65
2019-01-28T03:34:02.375Z,3.52
2019-01-28T03:36:42.470Z,3.00
2019-01-28T03:39:13.761Z,2.80
2019-01-28T03:41:46.867Z,2.62
2019-01-28T03:44:17.001Z,3.05
2019-01-28T03:46:46.834Z,3.52
2019-01-28T03:49:17.746Z,2.90
2019-01-28T03:51:47.974Z,3.20
2019-01-28T03:54:23.684Z,3.10
2019-01-28T03:56:53.734Z,2.90
2019-01-28T03:59:24.906Z,3.12
2019-01-28T04:02:00.173Z,2.70
2019-01-28T04:04:30.254Z,2.65
2019-01-28T04:07:00.535Z,2.25
2019-01-28T04:09:30.390Z,3.17
2019-01-28T04:12:00.359Z,3.02
2019-01-28T04:14:32.605Z,3.60
2019-01-28T04:17:02.483Z,2.10
2019-01-28T04:19:32.474Z,2.47
2019-01-28T04:22:03.477Z,3.05
2019-01-28T04:24:33.222Z,2.75
2019-01-28T04:27:06.332Z,3.08
2019-01-28T04:29:36.436Z,2.90
2019-01-28T04:32:07.066Z,2.33
2019-01-28T04:34:43.920Z,2.22
2019-01-28T04:37:15.795Z,2.58
2019-01-28T04:39:49.842Z,1.95
2019-01-28T04:42:19.922Z,2.12
2019-01-28T04:44:50.075Z,2.22
2019-01-28T04:47:20.242Z,1.87
2019-01-28T04:49:50.333Z,1.90
2019-01-28T04:52:23.459Z,2.40
2019-01-28T04:54:58.586Z,2.00
2019-01-28T04:57:28.654Z,2.10
2019-01-28T04:59:58.746Z,2.00
2019-01-28T05:02:36.690Z,2.80
2019-01-28T05:05:12.386Z,2.20
2019-01-28T05:07:53.550Z,1.62
2019-01-28T05:10:38.744Z,1.50
2019-01-28T05:13:08.857Z,2.12
2019-01-28T05:15:38.653Z,1.55
2019-01-28T05:18:08.671Z,1.70
2019-01-28T05:20:39.754Z,2.17
2019-01-28T05:23:09.602Z,1.72
2019-01-28T05:25:39.785Z,2.15
2019-01-28T05:28:09.920Z,2.10
2019-01-28T05:30:47.988Z,1.87
2019-01-28T05:33:19.106Z,2.05
2019-01-28T05:35:50.840Z,2.00
2019-01-28T05:38:23.794Z,1.95
2019-01-28T05:40:53.622Z,1.72
2019-01-28T05:43:25.526Z,1.50
2019-01-28T05:45:55.363Z,2.05
2019-01-28T05:48:25.034Z,1.70
2019-01-28T05:50:54.720Z,2.58
2019-01-28T05:53:32.668Z,1.32
2019-01-28T05:56:08.462Z,1.67
2019-01-28T05:58:39.371Z,1.50
2019-01-28T06:01:09.190Z,1.72
2019-01-28T06:03:41.121Z,1.07
2019-01-28T06:06:12.164Z,1.40
2019-01-28T06:08:44.232Z,1.30
2019-01-28T06:11:15.058Z,1.27
2019-01-28T06:13:46.232Z,1.10
2019-01-28T06:16:16.077Z,1.17
2019-01-28T06:18:50.019Z,1.12
2019-01-28T06:21:19.874Z,1.20
2019-01-28T06:23:51.816Z,1.15
2019-01-28T06:26:22.075Z,1.10
2019-01-28T06:28:52.838Z,0.98
2019-01-28T06:31:22.877Z,2.25
2019-01-28T06:33:52.978Z,1.30
2019-01-28T06:36:28.386Z,0.90
2019-01-28T06:39:00.353Z,1.00
2019-01-28T06:41:30.990Z,1.12
2019-01-28T06:44:08.358Z,1.57
2019-01-28T06:46:39.027Z,0.90
2019-01-28T06:49:10.497Z,1.00
2019-01-28T06:51:41.278Z,1.30
2019-01-28T06:54:12.197Z,0.72
2019-01-28T06:56:42.279Z,1.25
2019-01-28T06:59:12.095Z,1.37
2019-01-28T07:01:43.042Z,1.05
2019-01-28T07:04:13.830Z,0.90
2019-01-28T07:06:43.786Z,1.00
2019-01-28T07:09:13.594Z,0.78
2019-01-28T07:11:44.284Z,1.30
2019-01-28T07:14:13.954Z,0.90
2019-01-28T07:16:43.914Z,0.85
2019-01-28T07:19:14.000Z,0.85
2019-01-28T07:21:44.094Z,0.90
2019-01-28T07:24:13.898Z,0.60
2019-01-28T07:26:44.582Z,0.98
2019-01-28T07:29:15.263Z,1.00
2019-01-28T07:31:47.128Z,0.80
2019-01-28T07:34:19.972Z,0.75
2019-01-28T07:36:55.774Z,0.70
2019-01-28T07:39:25.471Z,1.02
2019-01-28T07:41:58.588Z,1.00
2019-01-28T07:44:30.628Z,0.70
2019-01-28T07:47:00.701Z,0.60
2019-01-28T07:49:36.594Z,0.82
2019-01-28T07:52:06.662Z,1.07
2019-01-28T07:54:36.658Z,0.80
2019-01-28T07:57:06.913Z,0.75
2019-01-28T07:59:36.992Z,0.95
2019-01-28T08:02:07.305Z,0.90
2019-01-28T08:04:37.388Z,0.70
2019-01-28T08:07:10.592Z,0.65
2019-01-28T08:09:42.666Z,0.80
2019-01-28T08:12:12.467Z,0.60
2019-01-28T08:14:45.550Z,0.70
2019-01-28T08:17:18.308Z,0.90
2019-01-28T08:19:48.411Z,0.70
2019-01-28T08:22:18.511Z,1.25
2019-01-28T08:24:48.592Z,0.80
2019-01-28T08:27:18.780Z,1.05
2019-01-28T08:29:48.558Z,1.15
2019-01-28T08:32:18.246Z,0.82
2019-01-28T08:34:51.799Z,0.80
2019-01-28T08:37:23.804Z,0.70
2019-01-28T08:39:55.634Z,0.72
2019-01-28T08:42:26.800Z,0.70
2019-01-28T08:44:58.643Z,0.95
2019-01-28T08:47:31.435Z,1.05
2019-01-28T08:50:02.549Z,0.80
2019-01-28T08:52:33.688Z,0.80
2019-01-28T08:55:14.498Z,0.93
2019-01-28T08:57:45.691Z,0.82
2019-01-28T09:00:22.568Z,0.75
2019-01-28T09:02:52.383Z,0.60
2019-01-28T09:05:23.463Z,0.98
2019-01-28T09:07:53.219Z,1.25
2019-01-28T09:10:27.439Z,1.00
2019-01-28T09:12:59.488Z,0.70
2019-01-28T09:15:33.698Z,0.70
2019-01-28T09:18:05.972Z,0.70
2019-01-28T09:20:42.915Z,0.70
2019-01-28T09:23:12.761Z,0.70
2019-01-28T09:25:42.687Z,0.82
2019-01-28T09:28:12.471Z,0.70
2019-01-28T09:30:57.523Z,0.50
2019-01-28T09:33:28.322Z,0.55
2019-01-28T09:35:59.922Z,0.70
2019-01-28T09:38:29.949Z,0.70
2019-01-28T09:40:59.762Z,0.70
2019-01-28T09:43:29.719Z,0.60
2019-01-28T09:46:05.255Z,0.70
2019-01-28T09:48:36.083Z,0.80
2019-01-28T09:51:06.159Z,0.90
2019-01-28T09:53:36.875Z,0.70
2019-01-28T09:56:10.583Z,0.55
2019-01-28T09:58:40.275Z,0.75
2019-01-28T10:01:11.156Z,0.75
2019-01-28T10:03:42.182Z,0.53
2019-01-28T10:06:12.000Z,0.60
2019-01-28T10:08:42.671Z,0.70
2019-01-28T10:11:13.344Z,0.65
2019-01-28T10:13:45.211Z,0.62
2019-01-28T10:16:17.301Z,0.60
2019-01-28T10:18:56.195Z,0.70
2019-01-28T10:21:27.244Z,0.50
2019-01-28T10:23:57.335Z,0.50
2019-01-28T10:26:28.395Z,0.60
2019-01-28T10:29:04.179Z,0.50
2019-01-28T10:31:34.189Z,0.57
2019-01-28T10:34:06.449Z,0.88
2019-01-28T10:36:37.548Z,0.70
2019-01-28T10:39:09.641Z,0.80
2019-01-28T10:41:39.463Z,0.47
2019-01-28T10:44:11.029Z,0.60
2019-01-28T10:46:40.991Z,0.60
2019-01-28T10:49:10.869Z,0.40
2019-01-28T10:51:40.599Z,0.57
2019-01-28T10:54:10.287Z,0.57
2019-01-28T10:56:40.377Z,0.55
2019-01-28T10:59:10.227Z,0.60
2019-01-28T11:01:39.915Z,0.70
2019-01-28T11:04:15.311Z,0.50
2019-01-28T11:06:45.019Z,0.50
2019-01-28T11:09:18.788Z,0.50
2019-01-28T11:11:48.866Z,0.50
2019-01-28T11:14:18.576Z,0.50
2019-01-28T11:16:50.559Z,0.50
2019-01-28T11:19:22.327Z,0.70
2019-01-28T11:21:59.149Z,0.70
2019-01-28T11:24:29.166Z,0.50
2019-01-28T11:27:13.003Z,0.50
2019-01-28T11:29:45.624Z,0.60
2019-01-28T11:32:33.088Z,0.70
2019-01-28T11:35:06.044Z,0.40
2019-01-28T11:37:37.119Z,0.60
2019-01-28T11:40:18.084Z,0.65
2019-01-28T11:42:48.082Z,0.50
2019-01-28T11:45:46.883Z,0.80
2019-01-28T11:48:16.715Z,0.60
2019-01-28T11:50:55.628Z,0.57
2019-01-28T11:53:21.427Z,0.70
2019-01-28T11:55:54.501Z,0.60
2019-01-28T11:58:33.654Z,0.40
2019-01-28T12:01:13.732Z,0.75
2019-01-28T12:03:53.529Z,0.50
2019-01-28T12:06:25.941Z,0.70
2019-01-28T12:08:56.035Z,0.65
2019-01-28T12:11:28.870Z,0.60
2019-01-28T12:13:58.695Z,0.55
2019-01-28T12:16:29.315Z,0.68
2019-01-28T12:19:00.203Z,0.50
2019-01-28T12:21:41.813Z,0.50
2019-01-28T12:24:11.603Z,0.50
2019-01-28T12:26:42.619Z,0.68
2019-01-28T12:29:14.468Z,0.60
2019-01-28T12:31:44.232Z,0.80
2019-01-28T12:34:17.753Z,0.75
2019-01-28T12:36:49.825Z,0.70
2019-01-28T12:39:19.667Z,0.62
2019-01-28T12:41:51.263Z,0.60
2019-01-28T12:44:22.201Z,0.68
2019-01-28T12:46:58.151Z,0.90
2019-01-28T12:49:29.064Z,0.50
2019-01-28T12:52:05.299Z,1.95
2019-01-28T12:54:36.270Z,0.60
2019-01-28T12:57:07.020Z,0.60
2019-01-28T12:59:36.703Z,0.70
2019-01-28T13:02:10.419Z,0.60
2019-01-28T13:04:42.226Z,0.53
2019-01-28T13:07:12.227Z,0.65
2019-01-28T13:09:42.890Z,0.50
2019-01-28T13:12:13.608Z,0.50
2019-01-28T13:14:44.324Z,0.85
2019-01-28T13:17:22.219Z,0.80
2019-01-28T13:19:53.992Z,0.60
2019-01-28T13:22:25.865Z,0.80
2019-01-28T13:24:55.948Z,0.50
2019-01-28T13:27:25.876Z,0.53
2019-01-28T13:30:02.609Z,0.50
2019-01-28T13:32:34.641Z,0.60
2019-01-28T13:35:05.396Z,1.25
2019-01-28T13:37:35.112Z,0.80
2019-01-28T13:40:08.032Z,0.70
2019-01-28T13:42:46.812Z,0.50
2019-01-28T13:45:25.549Z,0.80
2019-01-28T13:47:56.795Z,0.95
2019-01-28T13:50:27.970Z,1.32
2019-01-28T13:52:57.808Z,1.12
2019-01-28T13:55:28.524Z,1.30
2019-01-28T13:57:59.177Z,0.55
2019-01-28T14:00:30.104Z,0.60
2019-01-28T14:02:59.883Z,0.50
2019-01-28T14:05:30.608Z,0.70
2019-01-28T14:08:06.242Z,0.50
2019-01-28T14:10:36.245Z,0.68
2019-01-28T14:13:06.219Z,0.40
2019-01-28T14:15:38.749Z,0.70
2019-01-28T14:18:10.043Z,0.80
2019-01-28T14:20:40.807Z,0.75
2019-01-28T14:23:10.580Z,0.70
2019-01-28T14:25:41.224Z,0.60
2019-01-28T14:28:11.057Z,0.68
2019-01-28T14:30:43.992Z,0.62
2019-01-28T14:33:13.946Z,0.68
2019-01-28T14:35:44.177Z,0.78
2019-01-28T14:38:22.500Z,0.53
2019-01-28T14:40:52.401Z,0.65
2019-01-28T14:43:25.614Z,0.60
2019-01-28T14:45:55.276Z,0.50
2019-01-28T14:48:30.901Z,0.80
2019-01-28T14:51:00.920Z,0.60
2019-01-28T14:53:31.018Z,0.68
2019-01-28T14:56:07.129Z,0.78
2019-01-28T14:58:41.398Z,0.70
2019-01-28T15:01:12.303Z,0.65
2019-01-28T15:03:42.033Z,0.60
2019-01-28T15:06:11.792Z,0.78
2019-01-28T15:08:41.778Z,0.90
2019-01-28T15:11:14.435Z,0.60
2019-01-28T15:13:44.384Z,0.78
2019-01-28T15:16:14.896Z,0.72
2019-01-28T15:18:45.884Z,1.12
2019-01-28T15:21:15.833Z,0.60
2019-01-28T15:23:46.492Z,0.60
2019-01-28T15:26:16.421Z,0.80
2019-01-28T15:28:46.168Z,0.93
2019-01-28T15:31:16.121Z,0.70
2019-01-28T15:33:47.137Z,0.93
2019-01-28T15:36:17.956Z,0.90
2019-01-28T15:38:48.848Z,1.02
2019-01-28T15:41:20.898Z,1.10
2019-01-28T15:43:52.959Z,0.68
2019-01-28T15:46:24.664Z,1.37
2019-01-28T15:48:59.544Z,2.02
2019-01-28T15:51:30.597Z,0.88
2019-01-28T15:54:00.321Z,0.80
2019-01-28T15:56:30.314Z,1.22
2019-01-28T15:59:00.966Z,0.95
2019-01-28T16:01:36.600Z,0.60
2019-01-28T16:04:12.288Z,0.68
2019-01-28T16:06:42.279Z,0.60
2019-01-28T16:09:12.108Z,2.35
2019-01-28T16:11:41.805Z,0.75
2019-01-28T16:14:11.485Z,6.87
2019-01-28T16:16:41.568Z,1.15
2019-01-28T16:19:19.440Z,0.70
2019-01-28T16:21:50.197Z,0.90
2019-01-28T16:24:20.928Z,0.80
2019-01-28T16:26:50.990Z,0.70
2019-01-28T16:29:21.182Z,0.68
2019-01-28T16:31:53.100Z,1.00
2019-01-28T16:34:23.601Z,0.82
2019-01-28T16:36:53.493Z,0.93
2019-01-28T16:39:26.893Z,1.00
2019-01-28T16:41:57.233Z,0.90
2019-01-28T16:44:29.293Z,0.88
2019-01-28T16:47:19.562Z,0.75
2019-01-28T16:49:50.831Z,0.72
2019-01-28T16:52:27.101Z,0.93
2019-01-28T16:54:57.265Z,0.88
2019-01-28T16:57:34.777Z,0.85
2019-01-28T17:00:14.176Z,1.30
2019-01-28T17:02:44.070Z,0.82
2019-01-28T17:05:21.376Z,1.55
2019-01-28T17:07:51.521Z,0.80
2019-01-28T17:10:24.220Z,1.10
2019-01-28T17:12:58.953Z,0.90
2019-01-28T17:15:32.782Z,2.85
2019-01-28T17:18:03.617Z,2.40
2019-01-28T17:20:35.564Z,1.20
2019-01-28T17:23:05.916Z,1.30
2019-01-28T17:25:42.776Z,2.02
2019-01-28T17:28:14.484Z,2.10
2019-01-28T17:30:47.618Z,1.20
2019-01-28T17:33:25.385Z,1.07
2019-01-28T17:36:00.953Z,3.90
2019-01-28T17:38:32.528Z,1.47
2019-01-28T17:41:02.286Z,2.12
2019-01-28T17:43:33.721Z,1.02
2019-01-28T17:46:10.634Z,6.25
2019-01-28T17:48:40.690Z,0.80
2019-01-28T17:51:16.449Z,1.52
2019-01-28T17:53:46.707Z,1.05
2019-01-28T17:56:17.781Z,4.53
2019-01-28T17:58:47.850Z,1.17
2019-01-28T18:01:21.786Z,1.02
2019-01-28T18:03:51.648Z,9.38
2019-01-28T18:06:21.598Z,1.30
2019-01-28T18:08:54.181Z,1.10
2019-01-28T18:11:24.184Z,1.70
2019-01-28T18:13:54.413Z,1.00
2019-01-28T18:16:24.264Z,1.10
2019-01-28T18:19:01.954Z,1.15
2019-01-28T18:21:34.063Z,1.65
2019-01-28T18:24:04.393Z,1.72
2019-01-28T18:26:34.326Z,1.52
2019-01-28T18:29:05.005Z,6.65
2019-01-28T18:31:36.796Z,1.90
2019-01-28T18:34:07.037Z,1.45
2019-01-28T18:36:37.873Z,1.25
2019-01-28T18:39:10.116Z,1.00
2019-01-28T18:41:40.205Z,1.35
2019-01-28T18:44:10.005Z,1.90
2019-01-28T18:46:44.820Z,1.50
2019-01-28T18:49:14.585Z,1.80
2019-01-28T18:51:44.537Z,1.85
2019-01-28T18:54:14.639Z,1.55
2019-01-28T18:56:44.745Z,1.72
2019-01-28T18:59:14.934Z,1.60
2019-01-28T19:01:44.824Z,2.33
2019-01-28T19:04:14.765Z,1.77
2019-01-28T19:06:46.093Z,1.67
2019-01-28T19:09:18.644Z,1.77
2019-01-28T19:11:50.065Z,1.90
2019-01-28T19:14:24.369Z,2.60
2019-01-28T19:17:14.094Z,2.98
2019-01-28T19:19:57.609Z,3.47
2019-01-28T19:22:28.266Z,2.83
2019-01-28T19:24:58.225Z,2.42
2019-01-28T19:27:29.043Z,1.67
2019-01-28T19:30:07.749Z,3.00
2019-01-28T19:32:37.577Z,2.30
2019-01-28T19:35:08.321Z,2.80
2019-01-28T19:37:40.973Z,3.12
2019-01-28T19:40:15.949Z,5.62
2019-01-28T19:42:50.292Z,3.90
2019-01-28T19:45:21.013Z,4.80
2019-01-28T19:47:53.006Z,2.72
2019-01-28T19:50:24.955Z,3.67
2019-01-28T19:52:54.809Z,4.72
2019-01-28T19:55:25.073Z,2.60
2019-01-28T19:57:55.353Z,2.62
2019-01-28T20:00:27.641Z,2.92
2019-01-28T20:02:58.307Z,2.58
2019-01-28T20:05:28.400Z,2.75
2019-01-28T20:07:58.421Z,3.05
2019-01-28T20:10:35.234Z,4.50
2019-01-28T20:13:05.153Z,3.50
2019-01-28T20:15:34.909Z,3.30
2019-01-28T20:18:05.647Z,3.10
2019-01-28T20:20:35.831Z,2.95
2019-01-28T20:23:06.581Z,2.33
2019-01-28T20:25:37.678Z,3.02
2019-01-28T20:28:08.163Z,2.92
2019-01-28T20:30:37.981Z,2.40
2019-01-28T20:33:07.797Z,2.77
2019-01-28T20:35:38.809Z,2.95
2019-01-28T20:38:15.705Z,3.58
2019-01-28T20:40:40.941Z,2.85
2019-01-28T20:43:10.801Z,2.90
2019-01-28T20:45:45.250Z,2.60
2019-01-28T20:48:12.419Z,2.50
2019-01-28T20:50:44.583Z,2.33
2019-01-28T20:53:15.399Z,1.42
2019-01-28T20:55:45.101Z,2.30
2019-01-28T20:58:15.109Z,2.30
2019-01-28T21:00:46.057Z,2.70
2019-01-28T21:03:16.700Z,2.83
2019-01-28T21:05:46.521Z,2.80
2019-01-28T21:08:18.294Z,4.33
2019-01-28T21:10:48.049Z,2.85
2019-01-28T21:13:18.103Z,3.25
2019-01-28T21:15:48.282Z,2.75
2019-01-28T21:18:18.577Z,2.05
2019-01-28T21:20:48.485Z,2.05
2019-01-28T21:23:18.293Z,2.87
2019-01-28T21:25:49.011Z,2.90
2019-01-28T21:28:19.019Z,3.17
2019-01-28T21:30:50.245Z,3.22
2019-01-28T21:33:20.383Z,2.35
2019-01-28T21:36:07.933Z,3.27
2019-01-28T21:38:39.426Z,2.50
2019-01-28T21:41:09.330Z,3.35
2019-01-28T21:43:39.335Z,3.00
2019-01-28T21:46:10.216Z,2.52
2019-01-28T21:48:40.346Z,2.65
2019-01-28T21:51:22.629Z,4.10
2019-01-28T21:53:53.354Z,2.12
2019-01-28T21:56:23.123Z,2.85
2019-01-28T21:58:53.239Z,2.50
2019-01-28T22:01:23.509Z,3.80
2019-01-28T22:03:53.445Z,3.33
2019-01-28T22:06:23.120Z,2.77
2019-01-28T22:08:53.155Z,2.83
2019-01-28T22:11:24.335Z,4.55
2019-01-28T22:13:54.422Z,3.75
2019-01-28T22:16:24.669Z,2.65
2019-01-28T22:18:54.858Z,3.42
2019-01-28T22:21:27.113Z,3.62
2019-01-28T22:23:56.966Z,3.60
2019-01-28T22:26:26.694Z,4.00
2019-01-28T22:28:56.423Z,3.50
2019-01-28T22:31:26.242Z,3.62
2019-01-28T22:33:55.938Z,3.67
2019-01-28T22:36:26.070Z,3.00
2019-01-28T22:38:55.987Z,4.10
2019-01-28T22:41:28.710Z,4.37
2019-01-28T22:43:58.570Z,3.35
2019-01-28T22:46:28.322Z,4.53
2019-01-28T22:48:58.766Z,4.50
2019-01-28T22:51:29.510Z,3.95
2019-01-28T22:54:01.582Z,4.78
2019-01-28T22:56:32.917Z,3.90
2019-01-28T22:59:08.092Z,4.28
2019-01-28T23:01:41.746Z,4.10
2019-01-28T23:04:11.774Z,4.50
2019-01-28T23:06:41.817Z,3.72
2019-01-28T23:09:12.023Z,3.55
2019-01-28T23:11:42.894Z,4.03
2019-01-28T23:14:13.002Z,4.03
2019-01-28T23:16:43.866Z,3.00
2019-01-28T23:19:13.770Z,3.87
2019-01-28T23:21:43.839Z,3.30
2019-01-28T23:24:13.739Z,4.10
2019-01-28T23:26:45.891Z,4.17
2019-01-28T23:29:15.846Z,4.72
2019-01-28T23:31:45.674Z,4.08
2019-01-28T23:34:16.314Z,3.85
2019-01-28T23:36:45.994Z,4.20
2019-01-28T23:39:15.750Z,3.55
2019-01-28T23:41:45.434Z,4.20
2019-01-28T23:44:15.406Z,3.42
2019-01-28T23:46:46.350Z,4.70
2019-01-28T23:49:16.308Z,3.58
2019-01-28T23:51:46.402Z,4.35
2019-01-28T23:54:16.498Z,3.95
2019-01-28T23:56:46.676Z,3.15
2019-01-28T23:59:16.542Z,4.05
